Time;durP1;ratioP1;P1;durP2;ratioP2;P2;SDS_P1;SDS_P2;PMS_P1;PMS_P2;Temp;Humidity;BMP_temperature;BMP_pressure;BME280_temperature;BME280_humidity;BME280_pressure;Samples;Min_cycle;Max_cycle;Signal;HPM_P1;HPM_P2
2023/08/01 00:00:08;;;;;;;8.60;5.63;;;;;;;15.83;100.00;98828.31;5021176;28;20232;-66
2023/08/01 00:02:33;;;;;;;10.27;6.10;;;;;;;15.80;100.00;98831.16;5045184;28;20178;-66
2023/08/01 00:04:59;;;;;;;8.93;5.90;;;;;;;15.88;100.00;98838.25;5022220;28;20201;-66
2023/08/01 00:07:27;;;;;;;11.93;6.53;;;;;;;15.90;100.00;98826.75;5032801;28;20216;-66
2023/08/01 00:09:52;;;;;;;10.50;6.27;;;;;;;15.84;100.00;98816.97;5034291;28;20244;-67
2023/08/01 00:12:17;;;;;;;9.00;5.63;;;;;;;15.86;100.00;98814.22;5037158;28;20222;-67
2023/08/01 00:14:43;;;;;;;9.83;6.10;;;;;;;15.91;100.00;98814.59;5025460;28;20234;-67
2023/08/01 00:17:08;;;;;;;9.63;6.07;;;;;;;15.93;100.00;98813.47;5034516;28;20193;-67
2023/08/01 00:19:33;;;;;;;8.57;5.43;;;;;;;15.88;100.00;98805.31;5034210;28;20194;-67
2023/08/01 00:21:58;;;;;;;8.53;5.87;;;;;;;15.85;100.00;98800.47;5025257;28;20256;-67
2023/08/01 00:24:23;;;;;;;8.37;4.73;;;;;;;15.82;100.00;98785.97;5034246;28;20487;-65
2023/08/01 00:26:49;;;;;;;9.13;5.33;;;;;;;15.89;100.00;98773.25;5033863;28;20187;-66
2023/08/01 00:29:14;;;;;;;9.60;5.47;;;;;;;15.96;100.00;98774.28;5033849;28;20239;-66
2023/08/01 00:31:40;;;;;;;8.73;5.77;;;;;;;16.01;100.00;98766.03;5036066;28;20299;-66
2023/08/01 00:34:05;;;;;;;7.03;4.97;;;;;;;16.02;100.00;98765.06;5036534;28;20186;-65
2023/08/01 00:36:30;;;;;;;9.67;5.83;;;;;;;16.00;100.00;98759.25;5032429;28;20189;-65
2023/08/01 00:38:55;;;;;;;9.80;6.23;;;;;;;16.04;100.00;98759.72;5032351;28;20377;-65
2023/08/01 00:41:21;;;;;;;8.87;5.80;;;;;;;16.04;100.00;98752.78;5033840;28;20217;-66
2023/08/01 00:43:47;;;;;;;8.90;5.30;;;;;;;16.12;100.00;98747.66;5038603;28;20189;-66
2023/08/01 00:46:12;;;;;;;9.13;5.67;;;;;;;16.08;100.00;98751.50;5032836;28;20225;-66
2023/08/01 00:48:38;;;;;;;6.53;5.43;;;;;;;16.08;100.00;98746.31;5033664;28;20201;-66
2023/08/01 00:51:05;;;;;;;10.30;6.10;;;;;;;16.06;100.00;98740.47;5030921;28;20305;-66
2023/08/01 00:53:31;;;;;;;6.90;5.37;;;;;;;16.02;100.00;98751.31;5031710;28;20214;-67
2023/08/01 00:55:57;;;;;;;10.53;6.47;;;;;;;16.13;100.00;98751.84;5031184;28;20879;-67
2023/08/01 00:58:23;;;;;;;10.33;6.23;;;;;;;16.11;100.00;98742.59;5033371;28;20178;-67
2023/08/01 01:00:48;;;;;;;10.57;6.40;;;;;;;16.09;100.00;98753.13;5028605;28;20336;-67
2023/08/01 01:03:14;;;;;;;7.30;5.70;;;;;;;16.06;100.00;98744.84;5042803;28;20186;-67
2023/08/01 01:05:47;;;;;;;9.77;6.33;;;;;;;16.14;100.00;98731.94;5031174;28;20197;-67
2023/08/01 01:08:12;;;;;;;10.73;6.07;;;;;;;16.11;100.00;98722.66;5032942;28;20541;-67
2023/08/01 01:10:38;;;;;;;9.13;6.17;;;;;;;16.08;100.00;98707.41;5024914;28;20237;-68
2023/08/01 01:13:03;;;;;;;11.03;6.50;;;;;;;16.10;100.00;98710.66;5043442;28;20174;-68
2023/08/01 01:15:28;;;;;;;9.03;6.40;;;;;;;16.13;100.00;98697.38;5032310;28;20237;-68
2023/08/01 01:17:53;;;;;;;8.03;6.23;;;;;;;16.07;100.00;98686.81;5029923;28;20188;-68
2023/08/01 01:20:24;;;;;;;10.80;6.83;;;;;;;16.06;100.00;98691.19;5023616;28;20205;-68
2023/08/01 01:22:53;;;;;;;8.37;6.20;;;;;;;16.04;100.00;98687.94;5039241;28;20206;-69
2023/08/01 01:25:20;;;;;;;12.23;6.83;;;;;;;16.07;100.00;98692.00;5031158;28;20174;-69
2023/08/01 01:27:49;;;;;;;11.30;7.13;;;;;;;16.13;100.00;98679.22;5032152;28;20193;-69
2023/08/01 01:30:15;;;;;;;12.17;6.70;;;;;;;16.18;100.00;98688.34;5024471;28;20213;-68
2023/08/01 01:32:40;;;;;;;10.00;6.30;;;;;;;16.17;100.00;98684.09;5045908;28;20212;-68
2023/08/01 01:35:06;;;;;;;10.97;6.60;;;;;;;16.20;100.00;98663.88;5032247;28;20190;-68
2023/08/01 01:40:52;;;;;;;8.43;6.20;;;;;;;16.07;100.00;98648.69;5026203;28;20232;-69
2023/08/01 01:43:18;;;;;;;9.93;6.07;;;;;;;16.01;100.00;98618.19;5041951;28;20178;-68
2023/08/01 01:45:43;;;;;;;9.30;6.60;;;;;;;16.01;100.00;98605.22;5031558;28;20209;-68
2023/08/01 01:48:08;;;;;;;9.63;6.77;;;;;;;15.96;100.00;98608.31;5031112;28;20292;-69
2023/08/01 01:50:34;;;;;;;10.90;6.10;;;;;;;16.03;100.00;98631.03;5025424;28;20225;-69
2023/08/01 01:52:59;;;;;;;9.13;6.10;;;;;;;16.08;100.00;98652.94;5042944;28;20209;-68
2023/08/01 01:55:24;;;;;;;7.57;6.10;;;;;;;16.13;100.00;98665.44;5030323;28;20194;-69
2023/08/01 01:57:50;;;;;;;12.57;6.77;;;;;;;16.12;100.00;98658.63;5030882;28;20629;-69
2023/08/01 02:00:15;;;;;;;10.40;6.30;;;;;;;16.20;100.00;98650.06;5023326;28;20256;-69
2023/08/01 02:02:40;;;;;;;7.77;6.00;;;;;;;16.21;100.00;98639.56;5045428;28;20182;-69
2023/08/01 02:05:05;;;;;;;8.70;6.10;;;;;;;16.15;100.00;98619.41;5030032;28;20541;-69
2023/08/01 02:07:31;;;;;;;7.73;5.93;;;;;;;16.26;100.00;98615.72;5032268;28;20201;-68
2023/08/01 02:09:57;;;;;;;9.17;5.50;;;;;;;16.24;100.00;98615.88;5031628;28;20182;-68
2023/08/01 02:12:22;;;;;;;6.30;4.93;;;;;;;16.26;100.00;98634.69;5037441;28;20602;-68
2023/08/01 02:14:47;;;;;;;10.37;5.43;;;;;;;16.27;100.00;98635.50;5031535;28;20232;-68
2023/08/01 02:17:12;;;;;;;5.47;4.37;;;;;;;16.30;100.00;98606.66;5031843;28;20186;-67
2023/08/01 02:19:38;;;;;;;10.63;5.60;;;;;;;16.28;100.00;98587.84;5030208;28;20181;-67
2023/08/01 02:22:03;;;;;;;8.37;5.27;;;;;;;16.17;100.00;98582.94;5036629;28;20786;-68
2023/08/01 02:24:28;;;;;;;5.77;4.13;;;;;;;16.17;100.00;98573.38;5031405;28;20193;-68
2023/08/01 02:26:54;;;;;;;4.93;3.90;;;;;;;16.14;100.00;98577.09;5030411;28;20186;-68
2023/08/01 02:29:19;;;;;;;8.43;4.60;;;;;;;16.24;100.00;98587.34;5031749;28;20284;-68
2023/08/01 02:31:44;;;;;;;6.33;4.97;;;;;;;16.33;100.00;98584.78;5034725;28;20499;-68
2023/08/01 02:34:10;;;;;;;6.37;4.60;;;;;;;16.32;100.00;98575.38;5033510;28;20182;-68
2023/08/01 02:36:35;;;;;;;5.67;4.43;;;;;;;16.28;100.00;98573.06;5031681;28;20186;-68
2023/08/01 02:39:00;;;;;;;7.57;4.60;;;;;;;16.29;100.00;98564.31;5030464;28;20178;-66
2023/08/01 02:41:25;;;;;;;5.57;3.73;;;;;;;16.34;100.00;98576.03;5031729;28;20320;-66
2023/08/01 02:43:51;;;;;;;6.43;3.60;;;;;;;16.31;100.00;98556.41;5029977;28;20181;-67
2023/08/01 02:46:16;;;;;;;3.57;3.20;;;;;;;16.17;100.00;98557.00;5030729;28;20324;-67
2023/08/01 02:48:42;;;;;;;4.33;3.40;;;;;;;16.22;100.00;98552.94;5031431;28;20265;-67
2023/08/01 02:51:09;;;;;;;4.40;3.50;;;;;;;16.32;100.00;98564.97;5028530;28;20227;-67
2023/08/01 02:53:35;;;;;;;5.63;3.60;;;;;;;16.32;100.00;98563.19;5038137;28;20178;-67
2023/08/01 02:56:00;;;;;;;5.27;3.27;;;;;;;16.34;100.00;98556.06;5029537;28;20182;-68
2023/08/01 02:58:26;;;;;;;6.30;3.20;;;;;;;16.36;100.00;98561.09;5031368;28;20243;-67
2023/08/01 03:00:51;;;;;;;4.40;3.30;;;;;;;16.39;100.00;98556.41;5017021;28;20217;-68
2023/08/01 03:03:16;;;;;;;5.33;3.10;;;;;;;16.37;100.00;98567.91;5040371;28;20582;-69
2023/08/01 03:05:42;;;;;;;3.90;3.47;;;;;;;16.44;100.00;98566.31;5029070;28;20243;-69
2023/08/01 03:08:07;;;;;;;4.17;2.90;;;;;;;16.48;100.00;98564.22;5031365;28;20198;-68
2023/08/01 03:10:32;;;;;;;4.73;3.37;;;;;;;16.50;100.00;98563.09;5025056;28;20299;-69
2023/08/01 03:12:58;;;;;;;3.57;3.03;;;;;;;16.54;100.00;98566.16;5035452;28;20629;-68
2023/08/01 03:15:23;;;;;;;4.80;2.93;;;;;;;16.49;100.00;98568.44;5022022;28;20241;-68
2023/08/01 03:17:48;;;;;;;6.73;3.23;;;;;;;16.56;100.00;98567.63;5038066;28;20193;-68
2023/08/01 03:20:14;;;;;;;3.67;3.33;;;;;;;16.56;100.00;98561.59;5022337;28;20539;-68
2023/08/01 03:22:40;;;;;;;3.67;3.20;;;;;;;16.51;100.00;98563.88;5029693;28;20178;-69
2023/08/01 03:25:07;;;;;;;4.17;3.10;;;;;;;16.54;100.00;98573.97;5030470;28;20180;-68
2023/08/01 03:27:33;;;;;;;6.67;3.30;;;;;;;16.51;100.00;98569.06;5029961;28;20225;-68
2023/08/01 03:29:58;;;;;;;6.03;3.57;;;;;;;16.51;100.00;98543.94;5029475;28;20622;-68
2023/08/01 03:32:23;;;;;;;4.97;3.30;;;;;;;16.61;100.00;98541.19;5015610;28;20308;-69
2023/08/01 03:34:49;;;;;;;4.03;3.63;;;;;;;16.51;100.00;98522.34;5030312;28;20205;-68
2023/08/01 03:37:14;;;;;;;4.87;3.77;;;;;;;16.48;100.00;98572.78;5031262;28;20610;-68
2023/08/01 03:39:39;;;;;;;4.27;3.63;;;;;;;16.47;100.00;98560.78;5030786;28;20182;-68
2023/08/01 03:42:04;;;;;;;4.93;3.60;;;;;;;16.44;100.00;98555.94;5039228;28;20315;-68
2023/08/01 03:44:30;;;;;;;4.63;3.70;;;;;;;16.45;100.00;98549.78;5032924;28;20652;-68
2023/08/01 03:46:55;;;;;;;3.73;3.43;;;;;;;16.43;100.00;98543.91;5034604;28;20281;-69
2023/08/01 03:49:20;;;;;;;4.57;3.57;;;;;;;16.43;100.00;98518.81;5033075;28;20189;-69
2023/08/01 03:51:45;;;;;;;7.97;3.67;;;;;;;16.48;100.00;98525.28;5037953;28;20225;-69
2023/08/01 03:54:11;;;;;;;7.80;4.07;;;;;;;16.44;100.00;98535.97;5036148;28;20178;-68
2023/08/01 03:56:38;;;;;;;5.50;3.80;;;;;;;16.44;100.00;98541.16;5034728;28;20183;-69
2023/08/01 03:59:04;;;;;;;5.23;3.87;;;;;;;16.42;100.00;98542.28;5034428;28;20196;-69
2023/08/01 04:01:30;;;;;;;5.93;3.70;;;;;;;16.40;100.00;98549.44;5035642;28;20348;-69
2023/08/01 04:03:55;;;;;;;4.97;4.20;;;;;;;16.41;100.00;98538.06;5037924;28;20219;-68
2023/08/01 04:06:20;;;;;;;5.20;3.80;;;;;;;16.43;100.00;98538.72;5032817;28;20197;-68
2023/08/01 04:08:46;;;;;;;5.77;3.70;;;;;;;16.48;100.00;98540.84;5032285;28;20198;-68
2023/08/01 04:11:11;;;;;;;6.70;3.97;;;;;;;16.50;100.00;98531.94;5026190;28;20221;-69
2023/08/01 04:13:36;;;;;;;5.37;3.77;;;;;;;16.39;100.00;98512.28;5024139;28;20630;-68
2023/08/01 04:16:02;;;;;;;3.40;3.10;;;;;;;16.43;100.00;98520.56;5032198;28;20226;-68
2023/08/01 04:18:27;;;;;;;5.53;3.50;;;;;;;16.39;100.00;98517.47;5032634;28;20163;-69
2023/08/01 04:20:52;;;;;;;6.37;3.73;;;;;;;16.36;100.00;98511.78;5030770;28;20780;-68
2023/08/01 04:23:17;;;;;;;5.57;3.53;;;;;;;16.37;100.00;98505.63;5025844;28;20193;-69
2023/08/01 04:25:43;;;;;;;6.43;4.10;;;;;;;16.36;100.00;98515.22;5041916;28;20214;-69
2023/08/01 04:28:08;;;;;;;5.67;3.33;;;;;;;16.38;100.00;98509.84;5032475;28;20284;-69
2023/08/01 04:30:33;;;;;;;4.63;3.93;;;;;;;16.37;100.00;98500.44;5025451;28;20264;-69
2023/08/01 04:32:59;;;;;;;4.20;3.20;;;;;;;16.39;100.00;98499.31;5036265;28;20174;-68
2023/08/01 04:35:24;;;;;;;3.70;3.27;;;;;;;16.37;100.00;98513.41;5033722;28;20186;-68
2023/08/01 04:37:49;;;;;;;2.80;2.50;;;;;;;16.29;100.00;98512.44;5033351;28;20645;-69
2023/08/01 04:40:14;;;;;;;5.07;2.87;;;;;;;16.28;100.00;98507.41;5024556;28;20181;-68
2023/08/01 04:42:40;;;;;;;3.97;2.87;;;;;;;16.25;100.00;98498.16;5046845;28;20618;-68
2023/08/01 04:45:06;;;;;;;4.70;2.90;;;;;;;16.27;100.00;98493.63;5033373;28;20585;-68
2023/08/01 04:47:32;;;;;;;5.67;2.87;;;;;;;16.22;100.00;98479.50;5033508;28;20653;-68
2023/08/01 04:49:57;;;;;;;8.97;3.00;;;;;;;16.19;100.00;98469.47;5033942;28;20284;-69
2023/08/01 04:52:23;;;;;;;3.87;2.67;;;;;;;16.17;100.00;98454.03;5037468;28;20720;-68
2023/08/01 04:54:48;;;;;;;3.30;3.00;;;;;;;16.12;100.00;98428.59;5031881;28;20225;-68
2023/08/01 04:57:13;;;;;;;3.53;2.70;;;;;;;16.07;100.00;98430.03;5033344;28;20186;-67
2023/08/01 04:59:38;;;;;;;2.40;2.20;;;;;;;16.05;100.00;98425.03;5033257;28;20260;-67
2023/08/01 05:02:04;;;;;;;4.20;2.70;;;;;;;16.10;100.00;98442.66;5036392;28;20681;-67
2023/08/01 05:04:29;;;;;;;4.97;3.07;;;;;;;16.11;100.00;98442.53;5032839;28;20190;-67
2023/08/01 05:06:54;;;;;;;3.07;2.47;;;;;;;16.10;100.00;98447.88;5033164;28;20196;-67
2023/08/01 05:09:20;;;;;;;2.40;2.20;;;;;;;16.09;100.00;98452.25;5031609;28;20182;-68
2023/08/01 05:11:45;;;;;;;2.70;2.33;;;;;;;16.06;100.00;98475.94;5034999;28;20230;-68
2023/08/01 05:14:10;;;;;;;3.50;2.50;;;;;;;16.05;100.00;98466.50;5035200;28;20505;-67
2023/08/01 05:16:35;;;;;;;3.10;2.47;;;;;;;16.06;100.00;98475.94;5032901;28;20226;-68
2023/08/01 05:19:00;;;;;;;5.10;2.47;;;;;;;16.09;100.00;98480.78;5033002;28;20548;-68
2023/08/01 05:21:26;;;;;;;3.43;2.50;;;;;;;16.17;100.00;98477.38;5032033;28;20225;-67
2023/08/01 05:23:51;;;;;;;5.17;1.80;;;;;;;16.25;100.00;98484.38;5032444;28;20181;-68
2023/08/01 05:26:16;;;;;;;2.30;2.00;;;;;;;16.23;100.00;98489.72;5032544;28;20633;-68
2023/08/01 05:28:42;;;;;;;2.43;2.17;;;;;;;16.17;100.00;98482.56;5032859;28;20236;-68
2023/08/01 05:31:07;;;;;;;2.20;1.83;;;;;;;16.23;100.00;98487.13;5030023;28;20684;-68
2023/08/01 05:33:32;;;;;;;1.83;1.63;;;;;;;16.12;100.00;98492.63;5032118;28;20205;-68
2023/08/01 05:35:57;;;;;;;3.37;1.90;;;;;;;16.14;100.00;98488.09;5029546;28;20178;-68
2023/08/01 05:38:23;;;;;;;1.80;1.70;;;;;;;16.13;100.00;98469.09;5021193;28;20178;-67
2023/08/01 05:40:48;;;;;;;2.33;2.10;;;;;;;16.05;100.00;98450.97;5028945;28;20297;-68
2023/08/01 05:43:13;;;;;;;1.83;1.73;;;;;;;16.06;100.00;98450.00;5031405;28;20512;-67
2023/08/01 05:45:38;;;;;;;1.90;1.53;;;;;;;16.00;100.00;98385.78;5030444;28;20190;-67
2023/08/01 05:48:04;;;;;;;2.37;1.97;;;;;;;16.02;100.00;98425.31;5030870;28;20209;-67
2023/08/01 05:50:29;;;;;;;2.23;1.70;;;;;;;16.08;100.00;98455.81;5026073;28;20233;-67
2023/08/01 05:52:55;;;;;;;1.80;1.70;;;;;;;16.08;100.00;98468.78;5043461;28;20300;-68
2023/08/01 05:55:20;;;;;;;2.03;1.83;;;;;;;16.17;100.00;98486.97;5030377;28;20252;-68
2023/08/01 05:57:46;;;;;;;2.10;1.80;;;;;;;16.19;100.00;98485.81;5032310;28;20182;-68
2023/08/01 06:00:12;;;;;;;2.47;1.90;;;;;;;16.20;100.00;98481.44;5023224;28;20261;-68
2023/08/01 06:02:37;;;;;;;2.47;1.60;;;;;;;16.21;100.00;98480.47;5046224;28;20181;-69
2023/08/01 06:05:03;;;;;;;1.97;1.80;;;;;;;16.20;100.00;98492.66;5031648;28;20189;-59
2023/08/01 06:07:28;;;;;;;2.73;1.80;;;;;;;16.23;100.00;98492.31;5032084;28;20243;-59
2023/08/01 06:09:54;;;;;;;3.73;2.40;;;;;;;16.24;100.00;98504.31;5031824;28;20190;-60
2023/08/01 06:12:19;;;;;;;2.77;2.10;;;;;;;16.25;100.00;98511.13;5021588;28;20228;-57
2023/08/01 06:14:46;;;;;;;3.07;1.80;;;;;;;16.35;100.00;98546.50;5031019;28;20240;-59
2023/08/01 06:17:11;;;;;;;2.13;1.87;;;;;;;16.30;100.00;98554.78;5018914;28;20614;-58
2023/08/01 06:19:36;;;;;;;1.57;1.43;;;;;;;16.30;100.00;98552.97;5032040;28;20186;-60
2023/08/01 06:22:01;;;;;;;2.37;1.50;;;;;;;16.34;100.00;98537.09;5022941;28;20220;-58
2023/08/01 06:24:27;;;;;;;1.10;1.00;;;;;;;16.39;100.00;98556.41;5031560;28;20178;-58
2023/08/01 06:26:52;;;;;;;1.07;0.80;;;;;;;16.36;100.00;98551.53;5030424;28;20234;-58
2023/08/01 06:29:17;;;;;;;1.37;0.90;;;;;;;16.30;100.00;98552.97;5031682;28;20213;-58
2023/08/01 06:31:42;;;;;;;0.90;0.90;;;;;;;16.34;100.00;98556.06;5031932;28;20224;-59
2023/08/01 06:34:08;;;;;;;1.57;1.43;;;;;;;16.39;100.00;98564.19;5032020;28;20205;-58
2023/08/01 06:36:33;;;;;;;1.80;1.47;;;;;;;16.33;100.00;98561.44;5032304;28;20182;-66
2023/08/01 06:38:58;;;;;;;1.90;1.57;;;;;;;16.32;100.00;98570.97;5030250;28;20194;-65
2023/08/01 06:41:23;;;;;;;1.67;1.00;;;;;;;16.40;100.00;98578.78;5026419;28;20772;-64
2023/08/01 06:43:49;;;;;;;1.40;1.30;;;;;;;16.51;100.00;98582.03;5034262;28;20254;-64
2023/08/01 06:46:14;;;;;;;0.70;0.70;;;;;;;16.61;100.00;98578.34;5031390;28;20205;-65
2023/08/01 06:48:39;;;;;;;1.03;0.60;;;;;;;16.73;100.00;98580.63;5032687;28;20213;-63
2023/08/01 06:51:05;;;;;;;1.53;0.50;;;;;;;16.84;100.00;98585.50;5029755;28;20672;-63
2023/08/01 06:53:30;;;;;;;0.40;0.40;;;;;;;17.05;100.00;98584.25;5039398;28;20186;-64
2023/08/01 06:55:55;;;;;;;2.20;0.40;;;;;;;17.10;100.00;98590.59;5031522;28;20311;-64
2023/08/01 06:58:20;;;;;;;0.50;0.50;;;;;;;17.24;100.00;98596.91;5031554;28;20170;-65
2023/08/01 07:00:46;;;;;;;0.47;0.47;;;;;;;17.48;100.00;98597.06;5003414;28;20681;-65
2023/08/01 07:03:11;;;;;;;0.43;0.40;;;;;;;17.46;100.00;98597.19;5013747;28;20181;-64
2023/08/01 07:05:36;;;;;;;3.60;0.53;;;;;;;17.58;100.00;98593.28;5030956;28;20698;-65
2023/08/01 07:08:02;;;;;;;0.43;0.40;;;;;;;17.50;100.00;98598.50;5031816;28;20210;-65
2023/08/01 07:10:27;;;;;;;1.03;0.57;;;;;;;17.57;100.00;98596.06;5024558;28;20321;-65
2023/08/01 07:12:53;;;;;;;0.30;0.30;;;;;;;17.60;100.00;98595.75;5040385;28;20216;-66
2023/08/01 07:15:18;;;;;;;1.30;0.70;;;;;;;17.54;100.00;98589.41;5023089;28;20256;-66
2023/08/01 07:17:43;;;;;;;0.63;0.50;;;;;;;17.54;100.00;98579.00;5043983;28;20193;-65
2023/08/01 07:20:09;;;;;;;1.53;0.60;;;;;;;17.66;100.00;98592.47;5025496;28;20181;-66
2023/08/01 07:22:34;;;;;;;0.93;0.50;;;;;;;17.72;100.00;98596.19;5049700;28;20188;-65
2023/08/01 07:24:59;;;;;;;1.23;0.50;;;;;;;17.71;100.00;98589.34;5035107;28;20625;-65
2023/08/01 07:27:25;;;;;;;0.90;0.80;;;;;;;17.79;100.00;98588.53;5035521;28;20688;-67
2023/08/01 07:29:50;;;;;;;1.47;0.77;;;;;;;17.87;100.00;98586.72;5035597;28;20178;-64
2023/08/01 07:32:15;;;;;;;1.00;0.67;;;;;;;17.78;100.00;98599.91;5029430;28;20230;-62
2023/08/01 07:34:40;;;;;;;0.93;0.80;;;;;;;17.89;100.00;98592.53;5032458;28;20193;-66
2023/08/01 07:37:06;;;;;;;1.50;1.20;;;;;;;18.19;100.00;98597.19;5035231;28;20221;-67
2023/08/01 07:39:31;;;;;;;0.77;0.77;;;;;;;18.55;100.00;98592.25;5035259;28;20587;-69
2023/08/01 07:41:57;;;;;;;1.17;0.80;;;;;;;19.64;100.00;98593.03;5039652;28;20228;-67
2023/08/01 07:44:22;;;;;;;1.00;0.83;;;;;;;21.22;100.00;98601.25;5031226;28;20178;-65
2023/08/01 07:46:47;;;;;;;3.13;0.70;;;;;;;22.80;100.00;98591.09;5034396;28;20277;-65
2023/08/01 07:49:13;;;;;;;0.77;0.53;;;;;;;24.18;100.00;98590.28;5029053;28;20584;-64
2023/08/01 07:51:38;;;;;;;1.13;0.70;;;;;;;24.30;100.00;98595.72;5026472;28;20226;-64
2023/08/01 07:54:03;;;;;;;3.08;1.17;;;;;;;25.52;100.00;98600.94;5034929;28;20587;-64
2023/08/01 07:56:29;;;;;;;1.85;0.85;;;;;;;26.31;100.00;98597.59;5034730;28;20874;-66
2023/08/01 07:58:54;;;;;;;0.80;0.80;;;;;;;26.41;93.82;98608.44;5032968;28;20681;-63
2023/08/01 08:01:19;;;;;;;1.73;0.68;;;;;;;26.63;96.34;98611.38;5032800;28;20305;-64
2023/08/01 08:03:44;;;;;;;0.95;0.60;;;;;;;26.98;97.27;98618.59;5033868;28;21142;-65
2023/08/01 08:06:10;;;;;;;1.48;0.80;;;;;;;27.26;92.74;98617.09;5033024;28;20291;-65
2023/08/01 08:08:36;;;;;;;1.15;0.88;;;;;;;27.68;88.08;98622.28;5035293;28;20210;-64
2023/08/01 08:11:02;;;;;;;1.65;0.57;;;;;;;29.07;80.23;98624.06;5031131;28;20284;-66
2023/08/01 08:13:27;;;;;;;0.73;0.73;;;;;;;29.29;80.15;98616.22;5039139;28;20178;-66
2023/08/01 08:15:56;;;;;;;0.60;0.50;;;;;;;29.84;73.34;98624.34;5033555;28;20681;-66
2023/08/01 08:18:21;;;;;;;0.50;0.50;;;;;;;29.34;80.38;98620.78;5033720;28;21610;-66
2023/08/01 08:20:47;;;;;;;0.52;0.50;;;;;;;29.48;77.55;98623.09;5029776;28;20308;-66
2023/08/01 08:23:15;;;;;;;2.22;0.80;;;;;;;29.15;71.99;98633.47;5035408;28;20182;-65
2023/08/01 08:25:42;;;;;;;1.40;0.88;;;;;;;29.42;69.64;98624.84;5033599;28;20186;-64
2023/08/01 08:28:08;;;;;;;0.70;0.57;;;;;;;30.55;67.10;98644.00;5033969;28;20285;-65
2023/08/01 08:30:33;;;;;;;1.85;0.82;;;;;;;29.80;58.81;98641.78;5028258;28;20252;-65
2023/08/01 08:33:00;;;;;;;0.65;0.65;;;;;;;29.21;58.35;98643.09;5043494;28;20178;-65
2023/08/01 08:35:25;;;;;;;1.70;0.80;;;;;;;30.09;59.92;98649.56;5033224;28;20229;-63
2023/08/01 08:37:50;;;;;;;2.53;0.70;;;;;;;28.34;68.24;98655.59;5033543;28;20603;-63
2023/08/01 08:40:16;;;;;;;0.98;0.85;;;;;;;27.78;74.76;98655.25;5024584;28;20190;-63
2023/08/01 08:42:43;;;;;;;1.60;0.90;;;;;;;27.14;78.39;98663.78;5041510;28;20557;-64
2023/08/01 08:45:09;;;;;;;4.20;0.70;;;;;;;27.17;79.71;98645.69;5034017;28;20622;-63
2023/08/01 08:47:37;;;;;;;1.20;0.70;;;;;;;27.89;76.23;98651.78;5033707;28;20210;-64
2023/08/01 08:50:04;;;;;;;0.93;0.63;;;;;;;27.77;75.17;98645.69;5033427;28;20177;-61
2023/08/01 08:52:29;;;;;;;1.58;0.95;;;;;;;28.32;64.74;98647.91;5045544;28;20204;-63
2023/08/01 08:54:56;;;;;;;1.00;0.70;;;;;;;29.10;65.25;98647.41;5034289;28;20224;-64
2023/08/01 08:57:22;;;;;;;1.15;1.02;;;;;;;29.75;61.25;98647.81;5033722;28;20244;-63
2023/08/01 08:59:48;;;;;;;0.68;0.68;;;;;;;29.48;57.90;98652.22;5033096;28;20186;-62
2023/08/01 09:02:15;;;;;;;1.33;1.00;;;;;;;29.19;61.29;98655.75;5038457;28;20236;-62
2023/08/01 09:04:40;;;;;;;2.00;1.10;;;;;;;27.92;63.90;98659.25;5033111;28;20186;-62
2023/08/01 09:07:09;;;;;;;1.58;0.90;;;;;;;27.39;71.67;98658.34;5033122;28;20182;-63
2023/08/01 09:09:34;;;;;;;2.28;1.10;;;;;;;27.56;66.37;98647.91;5033405;28;20185;-64
2023/08/01 09:12:00;;;;;;;1.55;0.90;;;;;;;26.37;76.11;98650.25;5038657;28;20232;-64
2023/08/01 09:14:25;;;;;;;3.22;1.08;;;;;;;27.22;74.34;98642.34;5033232;28;20716;-64
2023/08/01 09:16:51;;;;;;;1.83;0.93;;;;;;;28.82;60.76;98642.97;5032804;28;20287;-64
2023/08/01 09:19:21;;;;;;;2.47;1.00;;;;;;;30.25;52.70;98648.72;5033087;28;20197;-63
2023/08/01 09:21:47;;;;;;;1.17;0.98;;;;;;;30.28;44.69;98652.72;5035105;28;20221;-63
2023/08/01 09:24:17;;;;;;;3.10;1.13;;;;;;;29.06;45.65;98656.88;5034115;28;20193;-66
2023/08/01 09:26:44;;;;;;;3.03;1.15;;;;;;;28.58;49.23;98658.13;5032796;28;20236;-63
2023/08/01 09:29:09;;;;;;;1.77;1.08;;;;;;;29.58;46.55;98657.66;5032971;28;20499;-64
2023/08/01 09:31:40;;;;;;;1.98;1.10;;;;;;;30.30;42.57;98657.78;5028668;28;20225;-64
2023/08/01 09:34:17;;;;;;;2.50;1.08;;;;;;;28.95;45.50;98670.97;5033515;28;20263;-64
2023/08/01 09:36:43;;;;;;;1.00;1.00;;;;;;;27.60;56.06;98664.09;5033060;28;20194;-64
2023/08/01 09:39:08;;;;;;;1.48;1.13;;;;;;;27.81;53.83;98657.41;5032029;28;20204;-64
2023/08/01 09:41:33;;;;;;;1.98;1.20;;;;;;;27.14;53.64;98666.44;5027133;28;20348;-65
2023/08/01 09:43:59;;;;;;;2.20;1.17;;;;;;;27.41;52.34;98666.84;5036760;28;20174;-64
2023/08/01 09:46:25;;;;;;;1.75;1.20;;;;;;;27.16;56.36;98681.00;5033672;28;20295;-64
2023/08/01 09:48:50;;;;;;;2.72;1.30;;;;;;;28.31;51.60;98666.66;5033464;28;20336;-66
2023/08/01 09:51:17;;;;;;;2.60;1.00;;;;;;;28.43;50.38;98674.53;5032113;28;20308;-65
2023/08/01 09:54:00;;;;;;;1.17;1.08;;;;;;;28.31;48.05;98680.66;5035242;28;20190;-64
2023/08/01 09:56:27;;;;;;;1.35;1.00;;;;;;;29.86;42.27;98685.88;5033692;28;20186;-66
2023/08/01 09:58:54;;;;;;;2.92;0.95;;;;;;;29.63;42.18;98685.03;5033293;28;20183;-64
2023/08/01 10:01:21;;;;;;;1.02;1.02;;;;;;;31.15;39.44;98699.78;5022674;28;20229;-65
2023/08/01 10:03:49;;;;;;;1.60;1.00;;;;;;;31.63;39.85;98697.16;5036535;28;20487;-66
2023/08/01 10:06:21;;;;;;;2.80;1.10;;;;;;;30.22;40.23;98688.97;5031779;28;20188;-66
2023/08/01 10:08:48;;;;;;;2.13;1.55;;;;;;;30.42;41.13;98696.38;5041763;28;20209;-67
2023/08/01 10:11:18;;;;;;;3.45;1.55;;;;;;;31.47;38.71;98696.25;5031591;28;20229;-67
2023/08/01 10:13:44;;;;;;;2.03;1.30;;;;;;;32.86;36.45;98701.41;5037505;28;20260;-72
2023/08/01 10:16:11;;;;;;;2.25;1.40;;;;;;;30.80;38.23;98701.00;5031499;28;20673;-71
2023/08/01 10:18:38;;;;;;;2.80;1.30;;;;;;;30.20;39.13;98706.97;5031816;28;20208;-68
2023/08/01 10:21:22;;;;;;;4.40;1.60;;;;;;;28.92;41.64;98705.88;5009172;28;20313;-70
2023/08/01 10:23:48;;;;;;;1.67;1.25;;;;;;;27.46;52.12;98692.56;5019804;28;20182;-64
2023/08/01 10:26:14;;;;;;;2.08;1.52;;;;;;;28.51;46.91;98688.16;5031115;28;20197;-65
2023/08/01 10:28:41;;;;;;;1.27;1.10;;;;;;;28.70;45.70;98690.66;5031502;28;20289;-69
2023/08/01 10:31:14;;;;;;;1.65;1.30;;;;;;;28.82;46.21;98691.41;5029499;28;20229;-65
2023/08/01 10:33:42;;;;;;;3.20;1.55;;;;;;;30.89;39.92;98702.97;5037050;28;20883;-65
2023/08/01 10:36:24;;;;;;;1.80;1.20;;;;;;;31.04;37.83;98704.16;5030066;28;20221;-64
2023/08/01 10:38:51;;;;;;;2.45;1.20;;;;;;;32.17;36.55;98706.78;5029688;28;20213;-65
2023/08/01 10:41:21;;;;;;;3.53;1.40;;;;;;;30.77;37.71;98710.28;5028252;28;20358;-67
2023/08/01 10:43:46;;;;;;;2.97;1.58;;;;;;;27.84;43.10;98696.59;5036403;28;20196;-66
2023/08/01 10:46:12;;;;;;;1.98;1.48;;;;;;;26.23;56.60;98709.41;5024756;28;20280;-65
2023/08/01 10:48:51;;;;;;;2.60;1.50;;;;;;;24.71;69.17;98712.00;5031172;28;20205;-63
2023/08/01 10:51:16;;;;;;;1.48;1.30;;;;;;;24.71;74.76;98700.66;5028874;28;20241;-62
2023/08/01 10:53:41;;;;;;;3.38;1.38;;;;;;;25.16;72.72;98705.06;5037102;28;20193;-63
2023/08/01 10:56:08;;;;;;;3.38;1.63;;;;;;;24.58;69.55;98699.66;5019861;28;20633;-63
2023/08/01 10:58:33;;;;;;;1.63;1.20;;;;;;;24.52;76.35;98704.97;5020234;28;20189;-63
2023/08/01 11:00:59;;;;;;;1.67;1.17;;;;;;;24.52;75.37;98700.50;5010371;28;20230;-63
2023/08/01 11:03:37;;;;;;;2.10;1.65;;;;;;;23.96;76.92;98694.03;5030592;28;20182;-63
2023/08/01 11:06:03;;;;;;;3.35;1.40;;;;;;;24.25;73.88;98699.81;5030484;28;20186;-62
2023/08/01 11:08:38;;;;;;;1.90;1.35;;;;;;;24.39;77.35;98693.50;5030810;28;20208;-62
2023/08/01 11:11:14;;;;;;;2.35;1.70;;;;;;;24.69;80.04;98702.72;5027515;28;20551;-62
2023/08/01 11:13:40;;;;;;;1.92;1.55;;;;;;;24.43;74.23;98707.81;5027222;28;20190;-63
2023/08/01 11:16:06;;;;;;;3.22;1.42;;;;;;;24.76;75.09;98706.13;5027430;28;20271;-65
2023/08/01 11:18:42;;;;;;;2.55;1.55;;;;;;;25.18;73.57;98703.84;5037248;28;20197;-64
2023/08/01 11:21:07;;;;;;;2.80;1.70;;;;;;;25.25;72.35;98706.41;5024669;28;20742;-65
2023/08/01 11:23:33;;;;;;;2.10;1.42;;;;;;;25.29;69.08;98689.16;5033278;28;20206;-65